createdAt,value
2023-01-07T00:01:24.870Z,97551.00
2023-01-07T00:03:53.348Z,97539.00
2023-01-07T00:06:30.274Z,97545.00
2023-01-07T00:08:58.084Z,97543.00
2023-01-07T00:11:31.140Z,97544.00
2023-01-07T00:13:59.223Z,97548.00
2023-01-07T00:16:30.243Z,97555.00
2023-01-07T00:19:00.258Z,97550.00
2023-01-07T00:21:28.804Z,97556.00
2023-01-07T00:23:59.637Z,97556.00
2023-01-07T00:26:31.469Z,97549.00
2023-01-07T00:28:58.516Z,97557.00
2023-01-07T00:31:29.728Z,97553.00
2023-01-07T00:33:57.040Z,97550.00
2023-01-07T00:36:27.406Z,97553.00
2023-01-07T00:38:57.891Z,97551.00
2023-01-07T00:41:25.091Z,97557.00
2023-01-07T00:43:51.943Z,97558.00
2023-01-07T00:46:19.407Z,97555.00
2023-01-07T00:48:46.438Z,97554.00
2023-01-07T00:51:15.637Z,97550.00
2023-01-07T00:53:43.161Z,97555.00
2023-01-07T00:56:12.010Z,97552.00
2023-01-07T00:58:38.847Z,97550.00
2023-01-07T01:01:05.896Z,97544.00
2023-01-07T01:03:33.811Z,97541.00
2023-01-07T01:06:07.283Z,97538.00
2023-01-07T01:08:34.257Z,97542.00
2023-01-07T01:11:09.270Z,97547.00
2023-01-07T01:13:38.481Z,97545.00
2023-01-07T01:16:17.819Z,97544.00
2023-01-07T01:18:46.908Z,97554.00
2023-01-07T01:23:47.519Z,97539.00
2023-01-07T01:26:16.981Z,97540.00
2023-01-07T01:28:44.673Z,97550.00
2023-01-07T01:31:12.752Z,97545.00
2023-01-07T01:33:39.899Z,97543.00
2023-01-07T01:36:10.298Z,97540.00
2023-01-07T01:38:37.669Z,97539.00
2023-01-07T01:41:05.876Z,97530.00
2023-01-07T01:43:39.644Z,97535.00
2023-01-07T01:46:24.960Z,97524.00
2023-01-07T01:48:58.572Z,97524.00
2023-01-07T01:51:29.435Z,97524.00
2023-01-07T01:53:56.584Z,97520.00
2023-01-07T01:56:30.705Z,97511.00
2023-01-07T01:59:04.817Z,97511.00
2023-01-07T02:01:34.146Z,97505.00
2023-01-07T02:04:01.589Z,97512.00
2023-01-07T02:06:33.587Z,97516.00
2023-01-07T02:09:00.571Z,97512.00
2023-01-07T02:11:52.270Z,97505.00
2023-01-07T02:14:55.312Z,97504.00
2023-01-07T02:17:52.531Z,97502.00
2023-01-07T02:21:06.087Z,97498.00
2023-01-07T02:23:51.715Z,97502.00
2023-01-07T02:26:59.736Z,97497.00
2023-01-07T02:29:54.479Z,97503.00
2023-01-07T02:33:06.667Z,97492.00
2023-01-07T02:35:33.404Z,97496.00
2023-01-07T02:38:19.695Z,97503.00
2023-01-07T02:41:01.519Z,97495.00
2023-01-07T02:44:19.194Z,97488.00
2023-01-07T02:46:51.741Z,97481.00
2023-01-07T02:49:19.105Z,97479.00
2023-01-07T02:51:46.873Z,97483.00
2023-01-07T02:54:24.991Z,97473.00
2023-01-07T02:57:43.014Z,97468.00
2023-01-07T03:00:52.350Z,97471.00
2023-01-07T03:03:56.791Z,97451.00
2023-01-07T03:07:11.753Z,97454.00
2023-01-07T03:10:06.095Z,97458.00
2023-01-07T03:12:53.191Z,97459.00
2023-01-07T03:15:36.155Z,97466.00
2023-01-07T03:18:21.564Z,97455.00
2023-01-07T03:20:54.469Z,97440.00
2023-01-07T03:23:25.794Z,97440.00
2023-01-07T03:25:55.084Z,97452.00
2023-01-07T03:28:29.900Z,97445.00
2023-01-07T03:30:58.820Z,97450.00
2023-01-07T03:33:43.407Z,97462.00
2023-01-07T03:36:12.480Z,97447.00
2023-01-07T03:38:43.066Z,97448.00
2023-01-07T03:41:10.049Z,97433.00
2023-01-07T03:43:36.922Z,97445.00
2023-01-07T03:46:04.003Z,97430.00
2023-01-07T03:48:30.824Z,97417.00
2023-01-07T03:50:57.636Z,97422.00
2023-01-07T03:53:24.422Z,97425.00
2023-01-07T03:55:51.233Z,97415.00
2023-01-07T03:58:18.036Z,97416.00
2023-01-07T04:00:44.844Z,97423.00
2023-01-07T04:03:11.911Z,97412.00
2023-01-07T04:05:38.721Z,97418.00
2023-01-07T04:08:05.751Z,97411.00
2023-01-07T04:10:32.544Z,97408.00
2023-01-07T04:12:59.349Z,97406.00
2023-01-07T04:15:26.154Z,97403.00
2023-01-07T04:17:53.012Z,97400.00
2023-01-07T04:20:19.824Z,97392.00
2023-01-07T04:22:46.642Z,97387.00
2023-01-07T04:25:13.630Z,97381.00
2023-01-07T04:27:40.464Z,97373.00
2023-01-07T04:30:07.929Z,97379.00
2023-01-07T04:32:34.948Z,97386.00
2023-01-07T04:35:01.756Z,97385.00
2023-01-07T04:37:28.612Z,97376.00
2023-01-07T04:39:55.433Z,97371.00
2023-01-07T04:42:22.254Z,97371.00
2023-01-07T04:44:49.125Z,97369.00
2023-01-07T04:47:16.096Z,97367.00
2023-01-07T04:49:43.004Z,97373.00
2023-01-07T04:52:09.956Z,97365.00
2023-01-07T04:54:36.776Z,97371.00
2023-01-07T04:57:03.788Z,97367.00
2023-01-07T04:59:30.645Z,97362.00
2023-01-07T05:01:57.675Z,97359.00
2023-01-07T05:04:24.597Z,97362.00
2023-01-07T05:06:51.654Z,97369.00
2023-01-07T05:09:18.507Z,97365.00
2023-01-07T05:11:45.307Z,97358.00
2023-01-07T05:14:12.508Z,97370.00
2023-01-07T05:16:39.449Z,97356.00
2023-01-07T05:19:06.259Z,97361.00
2023-01-07T05:21:33.106Z,97344.00
2023-01-07T05:23:59.893Z,97340.00
2023-01-07T05:26:26.707Z,97350.00
2023-01-07T05:28:53.539Z,97341.00
2023-01-07T05:31:20.678Z,97333.00
2023-01-07T05:33:47.648Z,97338.00
2023-01-07T05:36:15.630Z,97336.00
2023-01-07T05:38:42.541Z,97348.00
2023-01-07T05:41:09.427Z,97334.00
2023-01-07T05:43:36.297Z,97342.00
2023-01-07T05:46:03.299Z,97332.00
2023-01-07T05:48:30.262Z,97350.00
2023-01-07T05:50:57.130Z,97335.00
2023-01-07T05:53:24.101Z,97325.00
2023-01-07T05:56:00.226Z,97334.00
2023-01-07T05:58:28.200Z,97323.00
2023-01-07T06:00:56.347Z,97334.00
2023-01-07T06:03:23.654Z,97327.00
2023-01-07T06:05:51.162Z,97328.00
2023-01-07T06:08:18.094Z,97331.00
2023-01-07T06:10:45.151Z,97324.00
2023-01-07T06:13:11.977Z,97317.00
2023-01-07T06:15:38.850Z,97333.00
2023-01-07T06:18:05.750Z,97318.00
2023-01-07T06:20:35.273Z,97329.00
2023-01-07T06:23:05.494Z,97327.00
2023-01-07T06:25:32.349Z,97328.00
2023-01-07T06:27:59.559Z,97325.00
2023-01-07T06:30:26.673Z,97327.00
2023-01-07T06:32:54.413Z,97330.00
2023-01-07T06:35:21.482Z,97323.00
2023-01-07T06:37:48.498Z,97329.00
2023-01-07T06:40:15.749Z,97322.00
2023-01-07T06:42:42.631Z,97322.00
2023-01-07T06:45:10.691Z,97325.00
2023-01-07T06:47:37.627Z,97319.00
2023-01-07T06:50:04.783Z,97315.00
2023-01-07T06:52:31.652Z,97319.00
2023-01-07T06:54:58.577Z,97315.00
2023-01-07T06:57:26.265Z,97304.00
2023-01-07T06:59:53.078Z,97310.00
2023-01-07T07:02:23.542Z,97295.00
2023-01-07T07:04:50.709Z,97303.00
2023-01-07T07:07:18.358Z,97307.00
2023-01-07T07:09:45.998Z,97307.00
2023-01-07T07:12:13.176Z,97302.00
2023-01-07T07:14:40.382Z,97297.00
2023-01-07T07:17:07.208Z,97291.00
2023-01-07T07:19:34.082Z,97293.00
2023-01-07T07:22:04.765Z,97299.00
2023-01-07T07:24:32.149Z,97289.00
2023-01-07T07:27:00.170Z,97305.00
2023-01-07T07:29:27.538Z,97302.00
2023-01-07T07:31:54.396Z,97296.00
2023-01-07T07:34:21.290Z,97293.00
2023-01-07T07:36:48.398Z,97290.00
2023-01-07T07:39:15.471Z,97289.00
2023-01-07T07:41:42.691Z,97289.00
2023-01-07T07:44:09.487Z,97293.00
2023-01-07T07:46:36.807Z,97288.00
2023-01-07T07:49:04.044Z,97290.00
2023-01-07T07:51:31.221Z,97283.00
2023-01-07T07:53:58.321Z,97284.00
2023-01-07T07:56:25.276Z,97286.00
2023-01-07T07:58:52.289Z,97290.00
2023-01-07T08:01:19.227Z,97283.00
2023-01-07T08:03:46.166Z,97279.00
2023-01-07T08:06:13.839Z,97282.00
2023-01-07T08:08:41.757Z,97271.00
2023-01-07T08:11:09.402Z,97261.00
2023-01-07T08:13:36.225Z,97265.00
2023-01-07T08:16:03.206Z,97268.00
2023-01-07T08:18:30.108Z,97262.00
2023-01-07T08:20:57.019Z,97263.00
2023-01-07T08:23:24.097Z,97254.00
2023-01-07T08:25:51.000Z,97263.00
2023-01-07T08:28:17.772Z,97258.00
2023-01-07T08:30:45.402Z,97257.00
2023-01-07T08:33:12.259Z,97247.00
2023-01-07T08:35:39.151Z,97244.00
2023-01-07T08:38:09.090Z,97257.00
2023-01-07T08:40:38.053Z,97257.00
2023-01-07T08:43:07.948Z,97253.00
2023-01-07T08:45:34.977Z,97259.00
2023-01-07T08:48:02.325Z,97244.00
2023-01-07T08:50:33.377Z,97241.00
2023-01-07T08:53:00.286Z,97242.00
2023-01-07T08:55:29.951Z,97243.00
2023-01-07T08:57:57.083Z,97240.00
2023-01-07T09:00:24.397Z,97253.00
2023-01-07T09:02:52.396Z,97257.00
2023-01-07T09:05:19.800Z,97242.00
2023-01-07T09:07:46.609Z,97228.00
2023-01-07T09:10:13.445Z,97234.00
2023-01-07T09:12:40.836Z,97228.00
2023-01-07T09:15:09.235Z,97233.00
2023-01-07T09:17:36.843Z,97224.00
2023-01-07T09:20:05.764Z,97233.00
2023-01-07T09:22:34.435Z,97235.00
2023-01-07T09:25:01.258Z,97221.00
2023-01-07T09:27:28.308Z,97233.00
2023-01-07T09:29:58.407Z,97231.00
2023-01-07T09:32:26.322Z,97236.00
2023-01-07T09:37:34.083Z,97235.00
2023-01-07T09:40:01.692Z,97226.00
2023-01-07T09:42:53.910Z,97236.00
2023-01-07T09:45:30.893Z,97234.00
2023-01-07T09:48:01.350Z,97221.00
2023-01-07T09:50:56.674Z,97220.00
2023-01-07T09:53:31.319Z,97223.00
2023-01-07T09:56:11.052Z,97220.00
2023-01-07T09:58:42.531Z,97224.00
2023-01-07T10:01:15.330Z,97224.00
2023-01-07T10:04:49.913Z,97219.00
2023-01-07T10:07:24.727Z,97220.00
2023-01-07T10:10:17.801Z,97212.00
2023-01-07T10:12:58.690Z,97201.00
2023-01-07T10:15:38.052Z,97215.00
2023-01-07T10:18:13.577Z,97204.00
2023-01-07T10:20:54.566Z,97199.00
2023-01-07T10:23:26.155Z,97192.00
2023-01-07T10:25:58.666Z,97183.00
2023-01-07T10:28:38.943Z,97176.00
2023-01-07T10:31:12.969Z,97185.00
2023-01-07T10:33:41.404Z,97173.00
2023-01-07T10:36:26.602Z,97170.00
2023-01-07T10:39:27.205Z,97171.00
2023-01-07T10:42:06.694Z,97165.00
2023-01-07T10:45:02.933Z,97149.00
2023-01-07T10:47:32.831Z,97149.00
2023-01-07T10:50:30.611Z,97140.00
2023-01-07T10:53:27.675Z,97140.00
2023-01-07T10:56:20.603Z,97134.00
2023-01-07T10:58:50.571Z,97123.00
2023-01-07T11:01:30.567Z,97116.00
2023-01-07T11:03:59.925Z,97125.00
2023-01-07T11:06:59.303Z,97121.00
2023-01-07T11:09:33.793Z,97125.00
2023-01-07T11:12:26.155Z,97114.00
2023-01-07T11:14:56.903Z,97110.00
2023-01-07T11:17:38.900Z,97095.00
2023-01-07T11:20:08.864Z,97101.00
2023-01-07T11:22:38.684Z,97109.00
2023-01-07T11:25:25.315Z,97096.00
2023-01-07T11:27:52.552Z,97085.00
2023-01-07T11:30:27.493Z,97089.00
2023-01-07T11:33:06.515Z,97093.00
2023-01-07T11:35:34.393Z,97085.00
2023-01-07T11:38:02.091Z,97070.00
2023-01-07T11:40:32.894Z,97075.00
2023-01-07T11:43:26.186Z,97061.00
2023-01-07T11:46:20.821Z,97058.00
2023-01-07T11:48:50.651Z,97058.00
2023-01-07T11:51:17.875Z,97055.00
2023-01-07T11:53:50.827Z,97046.00
2023-01-07T11:56:21.043Z,97048.00
2023-01-07T11:59:14.485Z,97037.00
2023-01-07T12:01:52.380Z,97041.00
2023-01-07T12:04:38.295Z,97034.00
2023-01-07T12:07:16.547Z,97035.00
2023-01-07T12:09:46.215Z,97036.00
2023-01-07T12:12:39.216Z,97027.00
2023-01-07T12:15:19.051Z,97030.00
2023-01-07T12:17:50.852Z,97035.00
2023-01-07T12:20:38.958Z,97024.00
2023-01-07T12:23:24.166Z,97024.00
2023-01-07T12:26:16.892Z,97021.00
2023-01-07T12:29:07.201Z,97008.00
2023-01-07T12:31:58.095Z,97012.00
2023-01-07T12:34:52.402Z,97001.00
2023-01-07T12:37:27.107Z,96991.00
2023-01-07T12:40:29.313Z,96986.00
2023-01-07T12:43:05.090Z,96987.00
2023-01-07T12:46:02.187Z,96983.00
2023-01-07T12:48:41.466Z,96973.00
2023-01-07T12:51:21.005Z,96969.00
2023-01-07T12:54:11.573Z,96972.00
2023-01-07T12:56:53.781Z,96963.00
2023-01-07T12:59:48.065Z,96963.00
2023-01-07T13:02:54.963Z,96957.00
2023-01-07T13:05:28.497Z,96960.00
2023-01-07T13:08:25.776Z,96957.00
2023-01-07T13:11:44.187Z,96950.00
2023-01-07T13:14:31.426Z,96949.00
2023-01-07T13:17:30.131Z,96935.00
2023-01-07T13:19:59.052Z,96943.00
2023-01-07T13:22:38.909Z,96939.00
2023-01-07T13:25:42.951Z,96941.00
2023-01-07T13:28:21.831Z,96948.00
2023-01-07T13:31:10.286Z,96936.00
2023-01-07T13:33:55.150Z,96940.00
2023-01-07T13:36:30.989Z,96954.00
2023-01-07T13:39:38.573Z,96949.00
2023-01-07T13:42:27.260Z,96944.00
2023-01-07T13:45:15.591Z,96944.00
2023-01-07T13:47:49.252Z,96938.00
2023-01-07T13:51:01.121Z,96940.00
2023-01-07T13:53:37.998Z,96949.00
2023-01-07T13:56:17.108Z,96944.00
2023-01-07T13:58:45.435Z,96951.00
2023-01-07T14:01:24.458Z,96952.00
2023-01-07T14:04:03.673Z,96949.00
2023-01-07T14:06:36.436Z,96940.00
2023-01-07T14:09:13.437Z,96925.00
2023-01-07T14:11:58.242Z,96921.00
2023-01-07T14:14:43.089Z,96917.00
2023-01-07T14:17:38.664Z,96901.00
2023-01-07T14:20:50.420Z,96889.00
2023-01-07T14:23:32.570Z,96897.00
2023-01-07T14:26:08.142Z,96894.00
2023-01-07T14:28:46.766Z,96900.00
2023-01-07T14:31:23.822Z,96903.00
2023-01-07T14:33:58.291Z,96901.00
2023-01-07T14:37:08.867Z,96896.00
2023-01-07T14:39:44.703Z,96895.00
2023-01-07T14:42:20.474Z,96906.00
2023-01-07T14:44:49.479Z,96897.00
2023-01-07T14:47:41.081Z,96899.00
2023-01-07T14:50:30.106Z,96905.00
2023-01-07T14:53:32.452Z,96902.00
2023-01-07T14:56:38.780Z,96891.00
2023-01-07T14:59:46.501Z,96898.00
2023-01-07T15:03:03.690Z,96905.00
2023-01-07T15:06:03.250Z,96896.00
2023-01-07T15:09:08.401Z,96901.00
2023-01-07T15:11:56.292Z,96889.00
2023-01-07T15:14:50.283Z,96894.00
2023-01-07T15:17:17.374Z,96893.00
2023-01-07T15:19:45.183Z,96886.00
2023-01-07T15:22:38.055Z,96899.00
2023-01-07T15:25:13.147Z,96884.00
2023-01-07T15:27:56.878Z,96887.00
2023-01-07T15:30:47.856Z,96882.00
2023-01-07T15:33:36.746Z,96886.00
2023-01-07T15:36:06.349Z,96883.00
2023-01-07T15:38:50.757Z,96877.00
2023-01-07T15:41:34.515Z,96879.00
2023-01-07T15:44:05.601Z,96875.00
2023-01-07T15:46:33.961Z,96881.00
2023-01-07T15:49:09.833Z,96881.00
2023-01-07T15:51:40.219Z,96874.00
2023-01-07T15:54:25.876Z,96880.00
2023-01-07T15:56:57.554Z,96871.00
2023-01-07T15:59:31.845Z,96873.00
2023-01-07T16:02:25.361Z,96877.00
2023-01-07T16:04:54.674Z,96873.00
2023-01-07T16:07:49.355Z,96869.00
2023-01-07T16:10:35.044Z,96865.00
2023-01-07T16:13:05.620Z,96861.00
2023-01-07T16:15:34.918Z,96860.00
2023-01-07T16:18:15.202Z,96860.00
2023-01-07T16:20:56.558Z,96862.00
2023-01-07T16:23:33.010Z,96856.00
2023-01-07T16:26:16.763Z,96849.00
2023-01-07T16:28:54.687Z,96847.00
2023-01-07T16:31:31.895Z,96855.00
2023-01-07T16:34:00.134Z,96856.00
2023-01-07T16:36:41.769Z,96857.00
2023-01-07T16:39:29.499Z,96867.00
2023-01-07T16:42:15.744Z,96871.00
2023-01-07T16:44:44.138Z,96871.00
2023-01-07T16:47:18.913Z,96871.00
2023-01-07T16:49:46.116Z,96865.00
2023-01-07T16:52:21.946Z,96871.00
2023-01-07T16:54:50.230Z,96862.00
2023-01-07T16:57:41.551Z,96853.00
2023-01-07T17:00:20.195Z,96859.00
2023-01-07T17:02:58.578Z,96866.00
2023-01-07T17:05:29.143Z,96856.00
2023-01-07T17:08:14.972Z,96862.00
2023-01-07T17:10:47.463Z,96867.00
2023-01-07T17:13:14.244Z,96859.00
2023-01-07T17:15:43.008Z,96855.00
2023-01-07T17:18:15.575Z,96856.00
2023-01-07T17:20:50.649Z,96861.00
2023-01-07T17:23:26.514Z,96859.00
2023-01-07T17:26:03.363Z,96859.00
2023-01-07T17:28:46.203Z,96857.00
2023-01-07T17:31:13.159Z,96849.00
2023-01-07T17:33:40.220Z,96850.00
2023-01-07T17:36:14.376Z,96851.00
2023-01-07T17:38:41.255Z,96848.00
2023-01-07T17:41:37.242Z,96849.00
2023-01-07T17:44:07.068Z,96844.00
2023-01-07T17:46:33.879Z,96858.00
2023-01-07T17:49:01.081Z,96860.00
2023-01-07T17:51:28.526Z,96860.00
2023-01-07T17:53:59.067Z,96867.00
2023-01-07T17:56:26.052Z,96870.00
2023-01-07T17:58:55.849Z,96875.00
2023-01-07T18:01:23.913Z,96873.00
2023-01-07T18:03:51.564Z,96864.00
2023-01-07T18:06:24.612Z,96864.00
2023-01-07T18:08:52.762Z,96876.00
2023-01-07T18:11:46.692Z,96863.00
2023-01-07T18:14:14.688Z,96867.00
2023-01-07T18:16:42.069Z,96854.00
2023-01-07T18:19:13.495Z,96859.00
2023-01-07T18:21:41.006Z,96860.00
2023-01-07T18:24:09.525Z,96866.00
2023-01-07T18:26:36.337Z,96858.00
2023-01-07T18:29:03.112Z,96860.00
2023-01-07T18:31:30.143Z,96856.00
2023-01-07T18:33:56.914Z,96843.00
2023-01-07T18:36:23.730Z,96842.00
2023-01-07T18:38:50.532Z,96842.00
2023-01-07T18:41:17.382Z,96835.00
2023-01-07T18:43:44.177Z,96837.00
2023-01-07T18:46:11.050Z,96838.00
2023-01-07T18:48:37.969Z,96842.00
2023-01-07T18:51:11.000Z,96833.00
2023-01-07T18:53:38.989Z,96843.00
2023-01-07T18:56:11.373Z,96829.00
2023-01-07T18:58:39.686Z,96828.00
2023-01-07T19:01:08.622Z,96826.00
2023-01-07T19:03:36.553Z,96820.00
2023-01-07T19:06:11.081Z,96820.00
2023-01-07T19:08:39.167Z,96818.00
2023-01-07T19:11:12.595Z,96824.00
2023-01-07T19:13:39.780Z,96815.00
2023-01-07T19:16:10.186Z,96821.00
2023-01-07T19:18:37.486Z,96807.00
2023-01-07T19:21:06.675Z,96805.00
2023-01-07T19:23:33.925Z,96802.00
2023-01-07T19:26:08.258Z,96801.00
2023-01-07T19:28:35.417Z,96798.00
2023-01-07T19:31:06.773Z,96799.00
2023-01-07T19:33:34.416Z,96802.00
2023-01-07T19:36:03.688Z,96791.00
2023-01-07T19:38:30.941Z,96789.00
2023-01-07T19:40:57.780Z,96787.00
2023-01-07T19:43:24.698Z,96796.00
2023-01-07T19:45:56.740Z,96784.00
2023-01-07T19:48:24.397Z,96777.00
2023-01-07T19:51:00.708Z,96777.00
2023-01-07T19:53:29.760Z,96785.00
2023-01-07T19:56:02.328Z,96785.00
2023-01-07T19:58:29.674Z,96788.00
2023-01-07T20:01:06.477Z,96793.00
2023-01-07T20:03:35.628Z,96789.00
2023-01-07T20:06:18.262Z,96791.00
2023-01-07T20:08:45.976Z,96778.00
2023-01-07T20:11:13.800Z,96779.00
2023-01-07T20:13:41.001Z,96783.00
2023-01-07T20:16:29.107Z,96781.00
2023-01-07T20:18:56.087Z,96781.00
2023-01-07T20:21:25.749Z,96790.00
2023-01-07T20:23:53.319Z,96781.00
2023-01-07T20:26:24.767Z,96785.00
2023-01-07T20:28:52.149Z,96793.00
2023-01-07T20:31:21.692Z,96784.00
2023-01-07T20:33:50.431Z,96785.00
2023-01-07T20:36:23.853Z,96783.00
2023-01-07T20:38:51.563Z,96783.00
2023-01-07T20:41:27.972Z,96788.00
2023-01-07T20:43:58.355Z,96798.00
2023-01-07T20:46:27.612Z,96798.00
2023-01-07T20:48:56.002Z,96796.00
2023-01-07T20:51:22.984Z,96797.00
2023-01-07T20:53:49.900Z,96794.00
2023-01-07T20:56:19.431Z,96797.00
2023-01-07T20:58:47.378Z,96803.00
2023-01-07T21:01:18.339Z,96799.00
2023-01-07T21:03:45.903Z,96792.00
2023-01-07T21:06:14.808Z,96801.00
2023-01-07T21:08:41.752Z,96791.00
2023-01-07T21:11:18.962Z,96784.00
2023-01-07T21:13:46.621Z,96770.00
2023-01-07T21:16:14.067Z,96777.00
2023-01-07T21:18:41.444Z,96769.00
2023-01-07T21:21:19.026Z,96760.00
2023-01-07T21:23:47.035Z,96758.00
2023-01-07T21:26:14.907Z,96756.00
2023-01-07T21:28:44.379Z,96747.00
2023-01-07T21:31:14.046Z,96750.00
2023-01-07T21:33:41.799Z,96762.00
2023-01-07T21:36:18.993Z,96753.00
2023-01-07T21:38:47.305Z,96759.00
2023-01-07T21:41:16.450Z,96753.00
2023-01-07T21:43:44.013Z,96749.00
2023-01-07T21:46:11.914Z,96748.00
2023-01-07T21:48:41.619Z,96739.00
2023-01-07T21:51:15.903Z,96747.00
2023-01-07T21:53:42.965Z,96743.00
2023-01-07T21:56:16.345Z,96733.00
2023-01-07T21:58:44.830Z,96736.00
2023-01-07T22:01:13.196Z,96729.00
2023-01-07T22:03:44.092Z,96722.00
2023-01-07T22:06:24.336Z,96727.00
2023-01-07T22:08:56.999Z,96744.00
2023-01-07T22:11:24.241Z,96743.00
2023-01-07T22:13:53.049Z,96753.00
2023-01-07T22:16:22.314Z,96731.00
2023-01-07T22:18:49.601Z,96725.00
2023-01-07T22:21:17.631Z,96728.00
2023-01-07T22:23:46.135Z,96734.00
2023-01-07T22:26:15.113Z,96730.00
2023-01-07T22:28:43.048Z,96745.00
2023-01-07T22:31:20.035Z,96732.00
2023-01-07T22:33:46.971Z,96725.00
2023-01-07T22:36:49.276Z,96730.00
2023-01-07T22:39:18.262Z,96729.00
2023-01-07T22:41:46.358Z,96728.00
2023-01-07T22:44:21.249Z,96724.00
2023-01-07T22:46:50.598Z,96722.00
2023-01-07T22:49:18.618Z,96725.00
2023-01-07T22:51:48.310Z,96725.00
2023-01-07T22:54:16.620Z,96711.00
2023-01-07T22:56:44.613Z,96712.00
2023-01-07T22:59:12.031Z,96713.00
2023-01-07T23:01:39.799Z,96701.00
2023-01-07T23:04:06.795Z,96696.00
2023-01-07T23:06:33.816Z,96700.00
2023-01-07T23:09:00.698Z,96704.00
2023-01-07T23:11:45.874Z,96702.00
2023-01-07T23:14:12.808Z,96697.00
2023-01-07T23:16:40.053Z,96689.00
2023-01-07T23:19:07.498Z,96696.00
2023-01-07T23:21:34.424Z,96686.00
2023-01-07T23:24:01.368Z,96682.00
2023-01-07T23:26:28.377Z,96677.00
2023-01-07T23:28:55.178Z,96675.00
2023-01-07T23:31:22.009Z,96671.00
2023-01-07T23:33:48.827Z,96666.00
2023-01-07T23:36:20.213Z,96665.00
2023-01-07T23:38:48.112Z,96666.00
2023-01-07T23:41:15.051Z,96664.00
2023-01-07T23:43:42.823Z,96657.00
2023-01-07T23:46:10.212Z,96649.00
2023-01-07T23:48:39.788Z,96648.00
2023-01-07T23:51:10.618Z,96663.00
2023-01-07T23:53:37.603Z,96649.00
2023-01-07T23:56:07.557Z,96652.00
2023-01-07T23:58:37.483Z,96648.00
